createdAt,value
2022-11-29T00:00:22.759Z,12.87
2022-11-29T00:03:26.037Z,13.60
2022-11-29T00:06:30.182Z,13.65
2022-11-29T00:09:32.396Z,14.20
2022-11-29T00:12:34.905Z,11.95
2022-11-29T00:15:37.712Z,11.87
2022-11-29T00:18:39.933Z,12.30
2022-11-29T00:21:42.153Z,11.68
2022-11-29T00:24:44.765Z,11.68
2022-11-29T00:27:47.085Z,11.30
2022-11-29T00:30:49.369Z,10.63
2022-11-29T00:33:51.685Z,11.10
2022-11-29T00:36:54.081Z,9.98
2022-11-29T00:39:56.423Z,10.18
2022-11-29T00:42:58.720Z,9.10
2022-11-29T00:46:01.540Z,11.10
2022-11-29T00:49:04.028Z,10.77
2022-11-29T00:52:06.522Z,9.30
2022-11-29T00:55:09.226Z,10.23
2022-11-29T00:58:11.741Z,9.68
2022-11-29T01:01:14.008Z,7.93
2022-11-29T01:04:16.566Z,10.30
2022-11-29T01:07:18.898Z,9.43
2022-11-29T01:10:21.120Z,9.00
2022-11-29T01:13:23.654Z,10.45
2022-11-29T01:16:26.531Z,9.17
2022-11-29T01:19:28.778Z,9.00
2022-11-29T01:22:31.320Z,9.35
2022-11-29T01:25:33.621Z,10.27
2022-11-29T01:28:36.369Z,9.50
2022-11-29T01:31:38.957Z,9.13
2022-11-29T01:34:41.469Z,9.13
2022-11-29T01:37:44.237Z,9.15
2022-11-29T01:40:56.439Z,9.70
2022-11-29T01:43:58.947Z,9.73
2022-11-29T01:47:01.179Z,10.00
2022-11-29T01:50:03.937Z,11.37
2022-11-29T01:53:06.878Z,10.98
2022-11-29T01:56:09.961Z,8.75
2022-11-29T01:59:14.648Z,10.15
2022-11-29T02:02:22.307Z,9.83
2022-11-29T02:05:25.619Z,8.90
2022-11-29T02:08:31.700Z,8.35
2022-11-29T02:11:40.245Z,10.95
2022-11-29T02:14:45.771Z,8.48
2022-11-29T02:17:48.272Z,8.33
2022-11-29T02:21:02.762Z,8.80
2022-11-29T02:24:24.146Z,9.70
2022-11-29T02:27:45.152Z,8.77
2022-11-29T02:31:02.664Z,8.73
2022-11-29T02:34:31.565Z,11.97
2022-11-29T02:37:40.194Z,10.40
2022-11-29T02:40:48.591Z,11.20
2022-11-29T02:43:58.018Z,10.23
2022-11-29T02:47:06.345Z,9.07
2022-11-29T02:50:27.360Z,11.23
2022-11-29T02:53:37.249Z,10.87
2022-11-29T02:56:45.666Z,9.73
2022-11-29T03:00:03.181Z,9.98
2022-11-29T03:03:35.401Z,10.50
2022-11-29T03:06:40.721Z,10.13
2022-11-29T03:09:46.718Z,8.93
2022-11-29T03:12:50.888Z,8.85
2022-11-29T03:15:59.216Z,8.55
2022-11-29T03:19:22.270Z,8.50
2022-11-29T03:22:30.533Z,8.73
2022-11-29T03:25:50.226Z,8.73
2022-11-29T03:29:01.123Z,9.07
2022-11-29T03:32:06.169Z,8.23
2022-11-29T03:35:11.765Z,9.90
2022-11-29T03:38:46.723Z,9.63
2022-11-29T03:41:52.147Z,8.37
2022-11-29T03:45:00.322Z,9.00
2022-11-29T03:48:08.147Z,9.27
2022-11-29T03:51:14.531Z,9.98
2022-11-29T03:54:21.492Z,9.60
2022-11-29T03:57:31.322Z,7.57
2022-11-29T04:01:00.145Z,7.75
2022-11-29T04:04:14.782Z,8.32
2022-11-29T04:07:29.091Z,9.13
2022-11-29T04:10:50.376Z,7.13
2022-11-29T04:14:04.775Z,8.37
2022-11-29T04:17:16.137Z,7.68
2022-11-29T04:20:18.413Z,11.18
2022-11-29T04:23:45.706Z,9.10
2022-11-29T04:26:59.995Z,9.60
2022-11-29T04:30:08.552Z,9.80
2022-11-29T04:33:19.998Z,10.60
2022-11-29T04:36:25.310Z,10.50
2022-11-29T04:39:44.875Z,10.63
2022-11-29T04:43:10.270Z,9.13
2022-11-29T04:46:24.834Z,9.37
2022-11-29T04:49:45.475Z,8.05
2022-11-29T04:53:06.076Z,7.53
2022-11-29T04:56:13.791Z,8.70
2022-11-29T04:59:34.897Z,7.87
2022-11-29T05:02:41.479Z,7.93
2022-11-29T05:06:02.362Z,8.15
2022-11-29T05:09:10.619Z,8.15
2022-11-29T05:12:23.637Z,7.35
2022-11-29T05:15:26.092Z,8.00
2022-11-29T05:18:58.104Z,8.67
2022-11-29T05:22:25.293Z,10.32
2022-11-29T05:25:27.504Z,9.45
2022-11-29T05:29:02.408Z,8.75
2022-11-29T05:32:04.811Z,8.52
2022-11-29T05:35:28.904Z,9.43
2022-11-29T05:38:31.164Z,9.48
2022-11-29T05:41:39.593Z,8.68
2022-11-29T05:44:44.971Z,11.35
2022-11-29T05:47:54.299Z,11.07
2022-11-29T05:51:05.867Z,10.23
2022-11-29T05:54:08.136Z,12.10
2022-11-29T05:57:37.151Z,10.00
2022-11-29T06:00:52.648Z,12.32
2022-11-29T06:03:58.497Z,11.20
2022-11-29T06:07:16.268Z,10.87
2022-11-29T06:10:20.292Z,10.13
2022-11-29T06:13:44.385Z,10.05
2022-11-29T06:16:57.181Z,11.00
2022-11-29T06:20:19.634Z,9.57
2022-11-29T06:23:48.770Z,11.63
2022-11-29T06:27:17.961Z,9.13
2022-11-29T06:30:23.340Z,12.30
2022-11-29T06:33:44.032Z,10.68
2022-11-29T06:36:47.283Z,12.20
2022-11-29T06:39:50.668Z,11.33
2022-11-29T06:43:00.391Z,11.57
2022-11-29T06:46:14.459Z,11.43
2022-11-29T06:49:27.581Z,11.40
2022-11-29T06:53:07.838Z,11.07
2022-11-29T06:56:52.895Z,11.23
2022-11-29T07:00:16.351Z,11.60
2022-11-29T07:03:21.563Z,10.35
2022-11-29T07:06:37.142Z,12.30
2022-11-29T07:09:41.908Z,10.00
2022-11-29T07:12:52.125Z,10.07
2022-11-29T07:16:12.007Z,11.52
2022-11-29T07:19:29.077Z,11.63
2022-11-29T07:22:40.223Z,11.00
2022-11-29T07:25:48.645Z,8.93
2022-11-29T07:29:00.294Z,9.70
2022-11-29T07:32:15.365Z,9.45
2022-11-29T07:35:30.831Z,9.48
2022-11-29T07:38:42.612Z,9.93
2022-11-29T07:41:55.752Z,8.40
2022-11-29T07:45:14.092Z,8.80
2022-11-29T07:48:17.220Z,7.93
2022-11-29T07:51:20.010Z,8.40
2022-11-29T07:54:22.713Z,8.77
2022-11-29T07:57:26.581Z,10.23
2022-11-29T08:00:36.017Z,9.60
2022-11-29T08:03:41.208Z,10.88
2022-11-29T08:06:45.418Z,9.10
2022-11-29T08:09:48.335Z,10.85
2022-11-29T08:12:53.340Z,11.23
2022-11-29T08:15:56.245Z,13.10
2022-11-29T08:18:59.003Z,11.57
2022-11-29T08:22:01.554Z,10.88
2022-11-29T08:25:05.230Z,12.85
2022-11-29T08:28:08.245Z,12.97
2022-11-29T08:31:11.819Z,10.87
2022-11-29T08:34:14.655Z,11.00
2022-11-29T08:37:20.420Z,8.52
2022-11-29T08:40:24.476Z,9.13
2022-11-29T08:43:27.569Z,9.53
2022-11-29T08:46:51.006Z,8.13
2022-11-29T08:50:18.287Z,9.13
2022-11-29T08:53:41.559Z,11.77
2022-11-29T09:00:08.893Z,10.63
2022-11-29T09:03:31.614Z,9.47
2022-11-29T09:06:38.105Z,10.20
2022-11-29T09:09:41.477Z,8.80
2022-11-29T09:12:45.299Z,9.38
2022-11-29T09:15:48.650Z,9.93
2022-11-29T09:18:53.053Z,8.57
2022-11-29T09:21:55.906Z,9.82
2022-11-29T09:24:58.970Z,8.57
2022-11-29T09:28:03.386Z,10.93
2022-11-29T09:31:12.882Z,10.20
2022-11-29T09:34:17.438Z,10.00
2022-11-29T09:37:21.320Z,10.50
2022-11-29T09:40:43.331Z,9.35
2022-11-29T09:43:46.257Z,8.82
2022-11-29T09:46:58.970Z,10.37
2022-11-29T09:50:23.681Z,9.93
2022-11-29T09:53:32.957Z,9.95
2022-11-29T09:56:47.103Z,10.85
2022-11-29T09:59:53.371Z,9.85
2022-11-29T10:03:03.054Z,12.37
2022-11-29T10:06:09.493Z,10.77
2022-11-29T10:09:14.808Z,10.48
2022-11-29T10:12:41.037Z,9.98
2022-11-29T10:15:47.433Z,10.90
2022-11-29T10:18:52.115Z,10.87
2022-11-29T10:22:10.349Z,10.30
2022-11-29T10:25:19.236Z,9.90
2022-11-29T10:28:31.486Z,10.43
2022-11-29T10:31:47.062Z,11.38
2022-11-29T10:34:52.996Z,10.53
2022-11-29T10:38:29.138Z,11.17
2022-11-29T10:41:24.083Z,10.52
2022-11-29T10:44:29.714Z,10.68
2022-11-29T10:47:32.705Z,10.80
2022-11-29T10:50:38.355Z,11.83
2022-11-29T10:53:42.219Z,11.27
2022-11-29T10:56:45.566Z,12.05
2022-11-29T10:59:59.821Z,13.48
2022-11-29T11:03:28.257Z,12.07
2022-11-29T11:06:49.073Z,11.13
2022-11-29T11:09:57.443Z,14.50
2022-11-29T11:13:04.338Z,13.82
2022-11-29T11:16:19.058Z,13.07
2022-11-29T11:19:42.574Z,15.23
2022-11-29T11:22:44.997Z,13.53
2022-11-29T11:25:50.266Z,12.77
2022-11-29T11:29:00.716Z,14.32
2022-11-29T11:32:04.895Z,14.77
2022-11-29T11:35:21.025Z,15.02
2022-11-29T11:38:26.853Z,13.13
2022-11-29T11:41:51.783Z,13.83
2022-11-29T11:44:55.282Z,14.18
2022-11-29T11:48:05.628Z,14.68
2022-11-29T11:51:19.144Z,14.48
2022-11-29T11:54:22.107Z,14.80
2022-11-29T11:57:29.676Z,15.53
2022-11-29T12:01:07.352Z,13.77
2022-11-29T12:04:48.598Z,13.98
2022-11-29T12:08:19.894Z,13.82
2022-11-29T12:11:23.069Z,13.83
2022-11-29T12:14:45.725Z,14.40
2022-11-29T12:18:03.647Z,13.50
2022-11-29T12:21:06.132Z,15.15
2022-11-29T12:24:27.629Z,13.40
2022-11-29T12:27:33.095Z,13.47
2022-11-29T12:30:39.774Z,14.30
2022-11-29T12:33:42.724Z,13.77
2022-11-29T12:37:04.923Z,14.85
2022-11-29T12:40:07.852Z,14.57
2022-11-29T12:43:14.657Z,14.40
2022-11-29T12:46:26.437Z,15.50
2022-11-29T12:50:21.360Z,15.73
2022-11-29T12:53:44.229Z,13.73
2022-11-29T12:57:05.807Z,14.35
2022-11-29T13:00:17.897Z,15.20
2022-11-29T13:03:38.350Z,15.17
2022-11-29T13:07:01.617Z,12.77
2022-11-29T13:10:32.728Z,14.88
2022-11-29T13:14:13.832Z,15.57
2022-11-29T13:17:50.680Z,13.63
2022-11-29T13:21:27.409Z,15.73
2022-11-29T13:24:50.199Z,13.13
2022-11-29T13:28:16.392Z,14.48
2022-11-29T13:31:20.285Z,14.27
2022-11-29T13:34:37.019Z,13.57
2022-11-29T13:37:47.472Z,14.67
2022-11-29T13:40:59.944Z,14.27
2022-11-29T13:44:29.605Z,15.27
2022-11-29T13:47:31.843Z,14.93
2022-11-29T13:50:38.176Z,14.75
2022-11-29T13:53:48.865Z,14.93
2022-11-29T13:57:09.344Z,15.32
2022-11-29T14:00:44.305Z,15.00
2022-11-29T14:03:52.260Z,17.38
2022-11-29T14:07:03.754Z,15.30
2022-11-29T14:10:07.298Z,14.80
2022-11-29T14:13:14.186Z,15.00
2022-11-29T14:16:36.744Z,15.30
2022-11-29T14:19:39.197Z,15.40
2022-11-29T14:23:01.456Z,13.63
2022-11-29T14:26:05.244Z,14.63
2022-11-29T14:29:27.708Z,15.80
2022-11-29T14:32:38.408Z,15.90
2022-11-29T14:35:47.304Z,14.95
2022-11-29T14:39:09.536Z,14.63
2022-11-29T14:42:18.796Z,14.73
2022-11-29T14:45:26.430Z,15.67
2022-11-29T14:48:31.876Z,15.95
2022-11-29T14:51:34.713Z,16.13
2022-11-29T14:54:54.443Z,15.55
2022-11-29T14:57:57.430Z,18.13
2022-11-29T15:01:08.199Z,15.40
2022-11-29T15:04:12.669Z,16.27
2022-11-29T15:07:20.076Z,15.77
2022-11-29T15:10:25.784Z,19.33
2022-11-29T15:13:29.612Z,17.07
2022-11-29T15:16:41.071Z,17.27
2022-11-29T15:19:50.288Z,19.52
2022-11-29T15:22:58.818Z,18.92
2022-11-29T15:26:01.512Z,20.35
2022-11-29T15:29:18.274Z,18.90
2022-11-29T15:32:25.919Z,18.97
2022-11-29T15:35:28.520Z,18.50
2022-11-29T15:38:41.046Z,19.92
2022-11-29T15:41:43.432Z,17.55
2022-11-29T15:44:46.821Z,18.37
2022-11-29T15:47:49.244Z,18.83
2022-11-29T15:51:11.683Z,19.10
2022-11-29T15:54:20.043Z,18.45
2022-11-29T15:57:28.880Z,19.75
2022-11-29T16:00:32.985Z,18.10
2022-11-29T16:03:38.111Z,18.47
2022-11-29T16:06:41.487Z,18.02
2022-11-29T16:09:48.409Z,16.35
2022-11-29T16:12:53.399Z,16.92
2022-11-29T16:16:06.753Z,16.37
2022-11-29T16:19:29.218Z,15.17
2022-11-29T16:22:32.281Z,16.20
2022-11-29T16:30:20.123Z,14.73
2022-11-29T16:33:24.071Z,14.97
2022-11-29T16:36:26.916Z,16.90
2022-11-29T16:39:29.397Z,15.60
2022-11-29T16:42:33.568Z,15.93
2022-11-29T16:45:41.069Z,16.60
2022-11-29T16:48:43.522Z,17.50
2022-11-29T16:51:48.437Z,17.67
2022-11-29T16:54:51.030Z,16.95
2022-11-29T16:57:53.410Z,17.48
2022-11-29T17:00:56.029Z,16.42
2022-11-29T17:04:00.034Z,18.20
2022-11-29T17:07:02.385Z,17.17
2022-11-29T17:10:06.042Z,16.95
2022-11-29T17:13:11.674Z,16.65
2022-11-29T17:16:16.422Z,17.98
2022-11-29T17:19:19.776Z,18.80
2022-11-29T17:22:22.140Z,18.13
2022-11-29T17:25:24.515Z,18.75
2022-11-29T17:28:26.781Z,19.60
2022-11-29T17:31:29.837Z,18.30
2022-11-29T17:34:32.191Z,17.60
2022-11-29T17:37:34.509Z,19.70
2022-11-29T17:40:38.033Z,18.27
2022-11-29T17:43:40.847Z,18.17
2022-11-29T17:46:43.136Z,18.65
2022-11-29T17:49:46.271Z,18.60
2022-11-29T17:52:48.642Z,19.40
2022-11-29T17:55:50.949Z,19.85
2022-11-29T17:58:54.300Z,19.85
2022-11-29T18:01:56.703Z,21.75
2022-11-29T18:04:59.209Z,20.77
2022-11-29T18:08:01.645Z,19.27
2022-11-29T18:11:06.780Z,22.33
2022-11-29T18:14:10.334Z,22.40
2022-11-29T18:17:12.812Z,21.73
2022-11-29T18:20:15.191Z,22.53
2022-11-29T18:23:17.609Z,21.97
2022-11-29T18:26:21.015Z,21.65
2022-11-29T18:29:23.389Z,20.13
2022-11-29T18:32:25.884Z,21.20
2022-11-29T18:35:28.259Z,21.07
2022-11-29T18:38:30.781Z,20.33
2022-11-29T18:41:33.143Z,18.90
2022-11-29T18:44:35.540Z,17.90
2022-11-29T18:47:37.859Z,19.33
2022-11-29T18:50:40.206Z,21.10
2022-11-29T18:53:43.393Z,20.13
2022-11-29T18:56:46.203Z,22.80
2022-11-29T18:59:48.574Z,20.77
2022-11-29T19:02:51.333Z,20.15
2022-11-29T19:05:54.428Z,20.00
2022-11-29T19:08:59.921Z,19.23
2022-11-29T19:12:03.819Z,20.60
2022-11-29T19:15:06.353Z,21.25
2022-11-29T19:18:08.576Z,19.50
2022-11-29T19:21:15.130Z,19.03
2022-11-29T19:24:18.519Z,19.83
2022-11-29T19:27:26.084Z,20.67
2022-11-29T19:30:28.426Z,20.85
2022-11-29T19:33:31.441Z,19.52
2022-11-29T19:36:33.833Z,18.60
2022-11-29T19:39:36.299Z,18.67
2022-11-29T19:42:38.681Z,21.10
2022-11-29T19:45:41.076Z,19.08
2022-11-29T19:48:43.910Z,19.65
2022-11-29T19:51:46.289Z,19.77
2022-11-29T19:54:48.726Z,18.90
2022-11-29T19:57:51.076Z,18.30
2022-11-29T20:00:53.541Z,19.65
2022-11-29T20:03:56.801Z,18.27
2022-11-29T20:07:03.033Z,19.33
2022-11-29T20:10:23.516Z,19.50
2022-11-29T20:13:29.998Z,21.08
2022-11-29T20:16:32.671Z,22.75
2022-11-29T20:19:35.158Z,25.30
2022-11-29T20:22:37.926Z,21.93
2022-11-29T20:25:40.319Z,24.33
2022-11-29T20:28:43.259Z,25.25
2022-11-29T20:31:50.166Z,24.02
2022-11-29T20:34:53.770Z,22.08
2022-11-29T20:38:10.361Z,23.73
2022-11-29T20:41:15.332Z,24.83
2022-11-29T20:44:19.687Z,25.92
2022-11-29T20:47:23.921Z,21.30
2022-11-29T20:50:28.222Z,21.13
2022-11-29T20:53:41.192Z,20.97
2022-11-29T20:56:43.520Z,21.00
2022-11-29T20:59:46.349Z,20.58
2022-11-29T21:02:48.830Z,20.38
2022-11-29T21:05:51.781Z,18.83
2022-11-29T21:08:54.335Z,19.93
2022-11-29T21:11:56.932Z,20.23
2022-11-29T21:14:59.292Z,18.98
2022-11-29T21:18:01.754Z,18.90
2022-11-29T21:21:14.313Z,16.48
2022-11-29T21:24:31.924Z,15.47
2022-11-29T21:27:34.870Z,16.00
2022-11-29T21:30:37.694Z,13.82
2022-11-29T21:33:40.052Z,15.40
2022-11-29T21:36:42.316Z,12.88
2022-11-29T21:39:44.544Z,12.27
2022-11-29T21:42:46.752Z,14.53
2022-11-29T21:45:48.992Z,12.25
2022-11-29T21:48:52.901Z,12.98
2022-11-29T21:51:57.736Z,12.63
2022-11-29T21:54:59.950Z,12.77
2022-11-29T21:58:02.136Z,12.00
2022-11-29T22:01:14.835Z,11.90
2022-11-29T22:04:17.041Z,11.73
2022-11-29T22:07:19.327Z,11.80
2022-11-29T22:10:21.556Z,10.13
2022-11-29T22:13:23.750Z,11.53
2022-11-29T22:16:26.064Z,11.32
2022-11-29T22:19:29.648Z,11.68
2022-11-29T22:22:31.936Z,10.93
2022-11-29T22:25:34.199Z,10.80
2022-11-29T22:28:36.458Z,11.90
2022-11-29T22:31:38.766Z,14.25
2022-11-29T22:34:40.998Z,13.63
2022-11-29T22:37:43.152Z,14.80
2022-11-29T22:40:45.323Z,14.50
2022-11-29T22:43:47.588Z,12.67
2022-11-29T22:46:50.116Z,15.80
2022-11-29T22:49:52.347Z,17.23
2022-11-29T22:52:54.479Z,17.30
2022-11-29T22:56:00.148Z,18.67
2022-11-29T22:59:02.451Z,18.47
2022-11-29T23:02:04.764Z,17.08
2022-11-29T23:05:07.023Z,19.65
2022-11-29T23:08:09.172Z,18.83
2022-11-29T23:11:13.999Z,17.77
2022-11-29T23:14:16.219Z,19.13
2022-11-29T23:17:18.456Z,18.63
2022-11-29T23:20:21.056Z,18.75
2022-11-29T23:23:23.208Z,19.00
2022-11-29T23:26:28.044Z,18.50
2022-11-29T23:29:30.197Z,18.57
2022-11-29T23:32:32.354Z,18.27
2022-11-29T23:35:34.794Z,17.92
2022-11-29T23:38:37.181Z,17.85
2022-11-29T23:41:39.420Z,16.85
2022-11-29T23:44:41.611Z,16.93
2022-11-29T23:47:43.888Z,16.60
2022-11-29T23:50:46.347Z,17.73
2022-11-29T23:53:52.502Z,17.70
2022-11-29T23:56:54.714Z,16.60
2022-11-29T23:59:56.935Z,17.97
